Fallon, NV

3:44 AM PDT on August 31, 2014 (GMT -0700)
Reno-Tahoe International | Change Station
CLOSE
Current Station
Airport
Location: Reno,
Elevation: 4400 ft
Nearby Weather Stations

Elev 4400 ft 39.51 °N, 119.77 °W | Updated 49 minutes ago

Clear
Clear
61 °F
Feels Like 61 °F
N
6
Wind Variable Wind from South

Today
High -- | Low -- °F
--% Chance of Precip.
Yesterday
High -- | Low -- °F
Precip. -- in
6:22 AM 7:27 PM
Waxing Crescent, 29% visible
Pressure 29.88 in
Visibility 10.0 miles
Clouds Clear
Dew Point 34 °F
Humidity 36%
Rainfall 0.00 in
Snow Depth Not available.
UV 0 out of 12
Pollen 9.00 out of 12
Air Quality Not available.
Flu Activity Not available.
METAR KRNO 310955Z 17005KT 10SM CLR 16/01 A3004 RMK AO2 SLP116 T01610011

More Conditions Fewer Conditions

Pressure 29.88 in
Visibility 10.0 miles
Clouds Clear
Dew Point 34 °F
Humidity 36%
Rainfall 0.00 in
Snow Depth Not available.
UV 0 out of 12
Pollen 9.00 out of 12
Air Quality Not available.
Flu Activity Not available.
METAR KRNO 310955Z 17005KT 10SM CLR 16/01 A3004 RMK AO2 SLP116 T01610011

More Conditions Fewer Conditions

10-Day Weather Forecast

Almanac

Astronomy

Aug. 31, 2014 Rise Set
Actual Time 6:22 AM PDT 7:27 PM PDT
Civil Twilight 5:54 AM PDT 7:54 PM PDT
Nautical Twilight 5:22 AM PDT 8:27 PM PDT
Astronomical Twilight 4:47 AM PDT 9:01 PM PDT
Moon 12:12 PM PDT 10:47 PM PDT
Length of Visible Light 14h 00m
Length of Day
13h 04m
Tomorrow will be 2m 29s shorter.
Waxing Crescent, 29% of the Moon is Illuminated
Today
Waxing Crescent
Sep 2
First Quarter
Sep 8
Full
Sep 15
Last Quarter
Sep 24
New

Today's Extremes

State Highs State Lows

Community

WunderPhotos

Upload Photos

1,748,837 photos uploaded!

Nearby

Snow Depth

Station Depth Elevation
Mt. Rose Ski Area 0 in 8850 ft
Marlette Lake 0 in 8000 ft
Big Creek Summit 1 in 8700 ft
Lewis Peak 0 in 7400 ft
Lamance Creek 1 in 6000 ft

Earthquake Activity

City Distance Mag. Time & Date
No recent earthquake activity has been reported nearby.
Minimum magnitude displayed is 2.5.

Coastal Water Temperatures

Place Temperature
No Stations Reporting

Nearby Weather Stations